Fairland, Indiana
Current Conditions -  °F | °C
As of 3:53 AM on Friday 24 Oct 2014 (Local Time) from KGEZ Reporting Station
Clear Clear  
Wind Chill: 34°   Ceiling: Unl
Heat Index: 38°   Visibility: 7mi
Dew Point: 36°   Wind: 5mph
Humidity: 93%   Direction: 130°SE
Pressure: 30.11"   Gusts: NA
Location:  39.59°N, 85.86°W
Report Text: KGEZ 240753Z AUTO 13004KT 7SM CLR 03/02 A3011 RMK AO2 SLP198 T00330022
Loading
Personal Weather Stations






























Interactive Weather Map
Tropical Storm Tracking
New forecast layout! Learn more

10-Day Weather Forecast

Advertisements
Track Severe Weather on mobile